sensor_id;sensor_type;location;lat;lon;timestamp;pressure;altitude;pressure_sealevel;temperature;humidity
12594;BME280;6362;50.208;9.182;2023-08-31T00:00:40;99172.19;;;12.60;100.00
12594;BME280;6362;50.208;9.182;2023-08-31T00:03:06;99180.78;;;12.63;100.00
12594;BME280;6362;50.208;9.182;2023-08-31T00:05:31;99178.09;;;12.66;100.00
12594;BME280;6362;50.208;9.182;2023-08-31T00:07:57;99187.59;;;12.69;100.00
12594;BME280;6362;50.208;9.182;2023-08-31T00:10:23;99184.00;;;12.73;100.00
12594;BME280;6362;50.208;9.182;2023-08-31T00:12:49;99183.03;;;12.76;100.00
12594;BME280;6362;50.208;9.182;2023-08-31T00:15:15;99189.97;;;12.77;100.00
12594;BME280;6362;50.208;9.182;2023-08-31T00:17:40;99178.66;;;12.76;100.00
12594;BME280;6362;50.208;9.182;2023-08-31T00:20:07;99179.50;;;12.78;100.00
12594;BME280;6362;50.208;9.182;2023-08-31T00:22:33;99191.66;;;12.79;100.00
12594;BME280;6362;50.208;9.182;2023-08-31T00:24:58;99189.09;;;12.78;100.00
12594;BME280;6362;50.208;9.182;2023-08-31T00:27:24;99189.81;;;12.83;100.00
12594;BME280;6362;50.208;9.182;2023-08-31T00:29:49;99183.75;;;12.81;100.00
12594;BME280;6362;50.208;9.182;2023-08-31T00:32:17;99184.72;;;12.78;100.00
12594;BME280;6362;50.208;9.182;2023-08-31T00:34:49;99176.84;;;12.80;100.00
12594;BME280;6362;50.208;9.182;2023-08-31T00:37:15;99180.25;;;12.82;100.00
12594;BME280;6362;50.208;9.182;2023-08-31T00:39:40;99186.31;;;12.82;100.00
12594;BME280;6362;50.208;9.182;2023-08-31T00:42:05;99186.75;;;12.98;100.00
12594;BME280;6362;50.208;9.182;2023-08-31T00:44:31;99183.41;;;12.93;100.00
12594;BME280;6362;50.208;9.182;2023-08-31T00:46:56;99198.22;;;12.92;100.00
12594;BME280;6362;50.208;9.182;2023-08-31T00:49:22;99201.66;;;12.93;100.00
12594;BME280;6362;50.208;9.182;2023-08-31T00:51:48;99205.25;;;12.90;100.00
12594;BME280;6362;50.208;9.182;2023-08-31T00:54:17;99199.13;;;12.91;100.00
12594;BME280;6362;50.208;9.182;2023-08-31T00:56:43;99200.94;;;12.89;100.00
12594;BME280;6362;50.208;9.182;2023-08-31T00:59:08;99191.16;;;12.96;100.00
12594;BME280;6362;50.208;9.182;2023-08-31T01:01:37;99184.91;;;13.02;100.00
12594;BME280;6362;50.208;9.182;2023-08-31T01:04:21;99195.34;;;13.02;100.00
12594;BME280;6362;50.208;9.182;2023-08-31T01:09:42;99194.75;;;12.92;100.00
12594;BME280;6362;50.208;9.182;2023-08-31T01:12:17;99187.91;;;12.88;100.00
12594;BME280;6362;50.208;9.182;2023-08-31T01:15:00;99198.44;;;12.85;100.00
12594;BME280;6362;50.208;9.182;2023-08-31T01:17:29;99189.72;;;12.86;100.00
12594;BME280;6362;50.208;9.182;2023-08-31T01:19:59;99200.16;;;12.86;100.00
12594;BME280;6362;50.208;9.182;2023-08-31T01:22:33;99195.84;;;12.85;100.00
12594;BME280;6362;50.208;9.182;2023-08-31T01:25:03;99198.44;;;12.85;100.00
12594;BME280;6362;50.208;9.182;2023-08-31T01:27:31;99207.19;;;12.82;100.00
12594;BME280;6362;50.208;9.182;2023-08-31T01:29:57;99201.97;;;12.84;100.00
12594;BME280;6362;50.208;9.182;2023-08-31T01:32:23;99212.41;;;12.82;100.00
12594;BME280;6362;50.208;9.182;2023-08-31T01:34:50;99207.19;;;12.82;100.00
12594;BME280;6362;50.208;9.182;2023-08-31T01:37:34;99220.28;;;12.81;100.00
12594;BME280;6362;50.208;9.182;2023-08-31T01:40:06;99215.94;;;12.81;100.00
12594;BME280;6362;50.208;9.182;2023-08-31T01:42:36;99221.13;;;12.83;100.00
12594;BME280;6362;50.208;9.182;2023-08-31T01:45:02;99217.63;;;12.84;100.00
12594;BME280;6362;50.208;9.182;2023-08-31T01:47:29;99219.38;;;12.82;100.00
12594;BME280;6362;50.208;9.182;2023-08-31T01:49:55;99230.75;;;12.81;100.00
12594;BME280;6362;50.208;9.182;2023-08-31T01:52:21;99229.72;;;12.86;100.00
12594;BME280;6362;50.208;9.182;2023-08-31T01:54:46;99230.75;;;12.81;100.00
12594;BME280;6362;50.208;9.182;2023-08-31T01:57:12;99242.75;;;12.86;100.00
12594;BME280;6362;50.208;9.182;2023-08-31T01:59:38;99237.75;;;12.79;100.00
12594;BME280;6362;50.208;9.182;2023-08-31T02:02:03;99235.09;;;12.80;100.00
12594;BME280;6362;50.208;9.182;2023-08-31T02:04:29;99234.31;;;12.78;100.00
12594;BME280;6362;50.208;9.182;2023-08-31T02:06:54;99242.13;;;12.78;100.00
12594;BME280;6362;50.208;9.182;2023-08-31T02:09:20;99232.44;;;12.82;100.00
12594;BME280;6362;50.208;9.182;2023-08-31T02:11:45;99235.06;;;12.82;100.00
12594;BME280;6362;50.208;9.182;2023-08-31T02:14:11;99235.03;;;12.83;100.00
12594;BME280;6362;50.208;9.182;2023-08-31T02:16:36;99225.22;;;12.91;100.00
12594;BME280;6362;50.208;9.182;2023-08-31T02:19:02;99233.03;;;12.91;100.00
12594;BME280;6362;50.208;9.182;2023-08-31T02:21:27;99234.94;;;12.86;100.00
12594;BME280;6362;50.208;9.182;2023-08-31T02:23:53;99232.38;;;12.85;100.00
12594;BME280;6362;50.208;9.182;2023-08-31T02:26:18;99226.34;;;12.83;100.00
12594;BME280;6362;50.208;9.182;2023-08-31T02:28:43;99232.41;;;12.83;100.00
12594;BME280;6362;50.208;9.182;2023-08-31T02:31:10;99232.59;;;12.77;100.00
12594;BME280;6362;50.208;9.182;2023-08-31T02:33:37;99239.59;;;12.75;100.00
12594;BME280;6362;50.208;9.182;2023-08-31T02:36:02;99236.19;;;12.73;100.00
12594;BME280;6362;50.208;9.182;2023-08-31T02:38:28;99240.50;;;12.74;100.00
12594;BME280;6362;50.208;9.182;2023-08-31T02:40:54;99240.53;;;12.73;100.00
12594;BME280;6362;50.208;9.182;2023-08-31T02:43:19;99243.16;;;12.73;100.00
12594;BME280;6362;50.208;9.182;2023-08-31T02:45:44;99245.84;;;12.69;100.00
12594;BME280;6362;50.208;9.182;2023-08-31T02:48:10;99248.38;;;12.71;100.00
12594;BME280;6362;50.208;9.182;2023-08-31T02:50:35;99243.16;;;12.73;100.00
12594;BME280;6362;50.208;9.182;2023-08-31T02:53:01;99244.00;;;12.73;100.00
12594;BME280;6362;50.208;9.182;2023-08-31T02:55:27;99237.09;;;12.71;100.00
12594;BME280;6362;50.208;9.182;2023-08-31T02:57:53;99236.94;;;12.77;100.00
12594;BME280;6362;50.208;9.182;2023-08-31T03:00:19;99243.94;;;12.75;100.00
12594;BME280;6362;50.208;9.182;2023-08-31T03:02:49;99244.63;;;12.81;100.00
12594;BME280;6362;50.208;9.182;2023-08-31T03:05:18;99245.25;;;12.91;100.00
12594;BME280;6362;50.208;9.182;2023-08-31T03:07:44;99247.81;;;12.92;100.00
12594;BME280;6362;50.208;9.182;2023-08-31T03:10:09;99241.16;;;12.81;100.00
12594;BME280;6362;50.208;9.182;2023-08-31T03:12:38;99237.53;;;12.86;100.00
12594;BME280;6362;50.208;9.182;2023-08-31T03:15:04;99239.50;;;12.78;100.00
12594;BME280;6362;50.208;9.182;2023-08-31T03:17:31;99234.47;;;12.72;100.00
12594;BME280;6362;50.208;9.182;2023-08-31T03:19:56;99232.41;;;12.83;100.00
12594;BME280;6362;50.208;9.182;2023-08-31T03:22:21;99231.94;;;12.69;100.00
12594;BME280;6362;50.208;9.182;2023-08-31T03:24:47;99242.47;;;12.66;100.00
12594;BME280;6362;50.208;9.182;2023-08-31T03:27:12;99237.38;;;12.60;100.00
12594;BME280;6362;50.208;9.182;2023-08-31T03:29:37;99246.22;;;12.56;100.00
12594;BME280;6362;50.208;9.182;2023-08-31T03:32:04;99244.53;;;12.53;100.00
12594;BME280;6362;50.208;9.182;2023-08-31T03:34:30;99241.13;;;12.51;100.00
12594;BME280;6362;50.208;9.182;2023-08-31T03:36:59;99248.09;;;12.49;100.00
12594;BME280;6362;50.208;9.182;2023-08-31T03:39:25;99250.75;;;12.48;100.00
12594;BME280;6362;50.208;9.182;2023-08-31T03:41:51;99248.28;;;12.43;100.00
12594;BME280;6362;50.208;9.182;2023-08-31T03:44:16;99251.88;;;12.39;100.00
12594;BME280;6362;50.208;9.182;2023-08-31T03:46:42;99247.53;;;12.38;100.00
12594;BME280;6362;50.208;9.182;2023-08-31T03:49:09;99248.78;;;12.57;100.00
12594;BME280;6362;50.208;9.182;2023-08-31T03:51:34;99248.88;;;12.53;100.00
12594;BME280;6362;50.208;9.182;2023-08-31T03:54:00;99259.16;;;12.59;100.00
12594;BME280;6362;50.208;9.182;2023-08-31T03:56:25;99255.56;;;12.63;100.00
12594;BME280;6362;50.208;9.182;2023-08-31T03:58:52;99261.75;;;12.59;100.00
12594;BME280;6362;50.208;9.182;2023-08-31T04:01:17;99261.81;;;12.57;100.00
12594;BME280;6362;50.208;9.182;2023-08-31T04:03:43;99274.06;;;12.55;100.00
12594;BME280;6362;50.208;9.182;2023-08-31T04:06:08;99269.13;;;12.43;100.00
12594;BME280;6362;50.208;9.182;2023-08-31T04:08:34;99270.88;;;12.42;100.00
12594;BME280;6362;50.208;9.182;2023-08-31T04:10:59;99267.31;;;12.47;100.00
12594;BME280;6362;50.208;9.182;2023-08-31T04:13:25;99271.72;;;12.45;100.00
12594;BME280;6362;50.208;9.182;2023-08-31T04:15:52;99269.69;;;12.56;100.00
12594;BME280;6362;50.208;9.182;2023-08-31T04:18:17;99275.19;;;12.43;100.00
12594;BME280;6362;50.208;9.182;2023-08-31T04:20:48;99288.34;;;12.40;100.00
12594;BME280;6362;50.208;9.182;2023-08-31T04:23:14;99287.53;;;12.38;100.00
12594;BME280;6362;50.208;9.182;2023-08-31T04:25:39;99294.19;;;12.49;100.00
12594;BME280;6362;50.208;9.182;2023-08-31T04:28:05;99301.38;;;12.40;100.00
12594;BME280;6362;50.208;9.182;2023-08-31T04:30:30;99304.03;;;12.39;100.00
12594;BME280;6362;50.208;9.182;2023-08-31T04:32:56;99310.25;;;12.33;100.00
12594;BME280;6362;50.208;9.182;2023-08-31T04:35:21;99309.41;;;12.31;100.00
12594;BME280;6362;50.208;9.182;2023-08-31T04:37:47;99308.44;;;12.35;100.00
12594;BME280;6362;50.208;9.182;2023-08-31T04:40:12;99314.63;;;12.33;100.00
12594;BME280;6362;50.208;9.182;2023-08-31T04:42:38;99310.09;;;12.39;100.00
12594;BME280;6362;50.208;9.182;2023-08-31T04:45:04;99304.72;;;12.46;100.00
12594;BME280;6362;50.208;9.182;2023-08-31T04:47:30;99311.88;;;12.37;100.00
12594;BME280;6362;50.208;9.182;2023-08-31T04:49:56;99307.56;;;12.36;100.00
12594;BME280;6362;50.208;9.182;2023-08-31T04:52:22;99317.09;;;12.37;100.00
12594;BME280;6362;50.208;9.182;2023-08-31T04:54:47;99316.31;;;12.34;100.00
12594;BME280;6362;50.208;9.182;2023-08-31T04:57:13;99316.31;;;12.34;100.00
12594;BME280;6362;50.208;9.182;2023-08-31T04:59:38;99313.72;;;12.32;100.00
12594;BME280;6362;50.208;9.182;2023-08-31T05:02:04;99318.94;;;12.34;100.00
12594;BME280;6362;50.208;9.182;2023-08-31T05:04:29;99307.56;;;12.36;100.00
12594;BME280;6362;50.208;9.182;2023-08-31T05:06:55;99318.84;;;12.37;100.00
12594;BME280;6362;50.208;9.182;2023-08-31T05:09:21;99323.84;;;12.46;100.00
12594;BME280;6362;50.208;9.182;2023-08-31T05:11:48;99324.84;;;12.40;100.00
12594;BME280;6362;50.208;9.182;2023-08-31T05:14:13;99333.47;;;12.42;100.00
12594;BME280;6362;50.208;9.182;2023-08-31T05:16:38;99328.31;;;12.41;100.00
12594;BME280;6362;50.208;9.182;2023-08-31T05:19:04;99327.22;;;12.50;100.00
12594;BME280;6362;50.208;9.182;2023-08-31T05:21:29;99332.34;;;12.53;100.00
12594;BME280;6362;50.208;9.182;2023-08-31T05:23:55;99338.59;;;12.47;100.00
12594;BME280;6362;50.208;9.182;2023-08-31T05:26:21;99339.59;;;12.41;100.00
12594;BME280;6362;50.208;9.182;2023-08-31T05:28:46;99352.56;;;12.45;100.00
12594;BME280;6362;50.208;9.182;2023-08-31T05:31:11;99351.50;;;12.52;100.00
12594;BME280;6362;50.208;9.182;2023-08-31T05:33:37;99354.31;;;12.78;100.00
12594;BME280;6362;50.208;9.182;2023-08-31T05:36:03;99355.69;;;12.59;100.00
12594;BME280;6362;50.208;9.182;2023-08-31T05:38:31;99361.00;;;12.54;100.00
12594;BME280;6362;50.208;9.182;2023-08-31T05:41:06;99354.06;;;12.53;100.00
12594;BME280;6362;50.208;9.182;2023-08-31T05:43:34;99365.34;;;12.55;100.00
12594;BME280;6362;50.208;9.182;2023-08-31T05:45:59;99364.44;;;12.56;100.00
12594;BME280;6362;50.208;9.182;2023-08-31T05:48:25;99370.94;;;12.74;100.00
12594;BME280;6362;50.208;9.182;2023-08-31T05:50:50;99366.97;;;12.93;100.00
12594;BME280;6362;50.208;9.182;2023-08-31T05:53:16;99369.34;;;13.35;100.00
12594;BME280;6362;50.208;9.182;2023-08-31T05:55:42;99366.63;;;13.40;100.00
12594;BME280;6362;50.208;9.182;2023-08-31T05:58:07;99381.78;;;13.27;100.00
12594;BME280;6362;50.208;9.182;2023-08-31T06:00:32;99374.06;;;13.54;100.00
12594;BME280;6362;50.208;9.182;2023-08-31T06:02:58;99378.66;;;13.45;100.00
12594;BME280;6362;50.208;9.182;2023-08-31T06:05:23;99375.97;;;13.47;100.00
12594;BME280;6362;50.208;9.182;2023-08-31T06:07:49;99379.03;;;13.63;100.00
12594;BME280;6362;50.208;9.182;2023-08-31T06:10:15;99385.59;;;13.76;100.00
12594;BME280;6362;50.208;9.182;2023-08-31T06:12:41;99391.34;;;13.87;100.00
12594;BME280;6362;50.208;9.182;2023-08-31T06:15:06;99386.28;;;13.83;100.00
12594;BME280;6362;50.208;9.182;2023-08-31T06:17:32;99388.75;;;13.87;100.00
12594;BME280;6362;50.208;9.182;2023-08-31T06:19:57;99389.75;;;13.83;100.00
12594;BME280;6362;50.208;9.182;2023-08-31T06:22:23;99397.13;;;13.98;100.00
12594;BME280;6362;50.208;9.182;2023-08-31T06:24:50;99398.09;;;13.96;100.00
12594;BME280;6362;50.208;9.182;2023-08-31T06:27:15;99404.69;;;14.08;100.00
12594;BME280;6362;50.208;9.182;2023-08-31T06:29:43;99403.00;;;14.07;100.00
12594;BME280;6362;50.208;9.182;2023-08-31T06:32:08;99406.66;;;14.01;100.00
12594;BME280;6362;50.208;9.182;2023-08-31T06:34:33;99410.50;;;13.89;100.00
12594;BME280;6362;50.208;9.182;2023-08-31T06:36:59;99408.06;;;13.82;100.00
12594;BME280;6362;50.208;9.182;2023-08-31T06:39:24;99415.16;;;14.08;100.00
12594;BME280;6362;50.208;9.182;2023-08-31T06:41:50;99419.72;;;14.01;100.00
12594;BME280;6362;50.208;9.182;2023-08-31T06:44:15;99423.00;;;14.08;100.00
12594;BME280;6362;50.208;9.182;2023-08-31T06:46:42;99433.09;;;14.20;100.00
12594;BME280;6362;50.208;9.182;2023-08-31T06:49:07;99431.56;;;14.13;100.00
12594;BME280;6362;50.208;9.182;2023-08-31T06:51:33;99436.53;;;14.22;100.00
12594;BME280;6362;50.208;9.182;2023-08-31T06:53:58;99432.81;;;14.29;100.00
12594;BME280;6362;50.208;9.182;2023-08-31T06:56:33;99426.78;;;14.27;93.28
12594;BME280;6362;50.208;9.182;2023-08-31T06:58:58;99428.97;;;14.13;95.88
12594;BME280;6362;50.208;9.182;2023-08-31T07:01:24;99438.78;;;14.05;97.33
12594;BME280;6362;50.208;9.182;2023-08-31T07:03:49;99423.28;;;14.28;100.00
12594;BME280;6362;50.208;9.182;2023-08-31T07:06:15;99430.28;;;14.26;93.79
12594;BME280;6362;50.208;9.182;2023-08-31T07:08:40;99426.41;;;14.39;95.93
12594;BME280;6362;50.208;9.182;2023-08-31T07:11:07;99422.97;;;14.37;93.07
12594;BME280;6362;50.208;9.182;2023-08-31T07:13:32;99427.44;;;14.34;92.63
12594;BME280;6362;50.208;9.182;2023-08-31T07:15:58;99442.97;;;14.40;92.10
12594;BME280;6362;50.208;9.182;2023-08-31T07:18:23;99443.38;;;14.56;93.78
12594;BME280;6362;50.208;9.182;2023-08-31T07:20:49;99443.03;;;14.66;97.77
12594;BME280;6362;50.208;9.182;2023-08-31T07:23:14;99448.00;;;14.74;90.21
12594;BME280;6362;50.208;9.182;2023-08-31T07:25:40;99447.94;;;14.75;88.72
12594;BME280;6362;50.208;9.182;2023-08-31T07:28:05;99451.63;;;14.70;89.01
12594;BME280;6362;50.208;9.182;2023-08-31T07:30:31;99453.44;;;14.68;90.59
12594;BME280;6362;50.208;9.182;2023-08-31T07:32:58;99461.94;;;14.74;92.79
12594;BME280;6362;50.208;9.182;2023-08-31T07:35:28;99465.94;;;14.86;90.59
12594;BME280;6362;50.208;9.182;2023-08-31T07:37:53;99469.38;;;14.88;90.27
12594;BME280;6362;50.208;9.182;2023-08-31T07:40:18;99474.44;;;14.93;89.60
12594;BME280;6362;50.208;9.182;2023-08-31T07:42:44;99480.31;;;15.01;85.88
12594;BME280;6362;50.208;9.182;2023-08-31T07:45:09;99482.34;;;14.91;87.18
12594;BME280;6362;50.208;9.182;2023-08-31T07:47:35;99484.19;;;14.88;87.49
12594;BME280;6362;50.208;9.182;2023-08-31T07:50:00;99489.03;;;14.73;87.57
12594;BME280;6362;50.208;9.182;2023-08-31T07:52:26;99500.31;;;14.47;88.92
12594;BME280;6362;50.208;9.182;2023-08-31T07:54:52;99502.00;;;14.50;89.83
12594;BME280;6362;50.208;9.182;2023-08-31T07:57:19;99499.47;;;14.45;88.79
12594;BME280;6362;50.208;9.182;2023-08-31T07:59:44;99503.69;;;14.51;89.72
12594;BME280;6362;50.208;9.182;2023-08-31T08:02:09;99494.81;;;14.57;88.32
12594;BME280;6362;50.208;9.182;2023-08-31T08:04:35;99487.41;;;14.69;88.29
12594;BME280;6362;50.208;9.182;2023-08-31T08:07:01;99490.31;;;14.88;88.16
12594;BME280;6362;50.208;9.182;2023-08-31T08:09:26;99494.19;;;15.03;85.98
12594;BME280;6362;50.208;9.182;2023-08-31T08:11:52;99490.50;;;15.35;85.07
12594;BME280;6362;50.208;9.182;2023-08-31T08:14:17;99487.34;;;15.77;83.44
12594;BME280;6362;50.208;9.182;2023-08-31T08:16:43;99491.84;;;15.97;79.79
12594;BME280;6362;50.208;9.182;2023-08-31T08:19:08;99497.47;;;16.09;78.90
12594;BME280;6362;50.208;9.182;2023-08-31T08:21:35;99499.59;;;16.00;77.13
12594;BME280;6362;50.208;9.182;2023-08-31T08:24:00;99496.47;;;15.90;76.59
12594;BME280;6362;50.208;9.182;2023-08-31T08:26:26;99497.22;;;15.69;77.43
12594;BME280;6362;50.208;9.182;2023-08-31T08:28:51;99498.84;;;15.73;77.99
12594;BME280;6362;50.208;9.182;2023-08-31T08:31:16;99502.47;;;15.69;78.00
12594;BME280;6362;50.208;9.182;2023-08-31T08:33:42;99505.25;;;15.64;79.15
12594;BME280;6362;50.208;9.182;2023-08-31T08:36:07;99500.44;;;15.77;78.29
12594;BME280;6362;50.208;9.182;2023-08-31T08:38:33;99495.69;;;15.87;77.84
12594;BME280;6362;50.208;9.182;2023-08-31T08:41:06;99506.09;;;15.90;76.68
12594;BME280;6362;50.208;9.182;2023-08-31T08:43:33;99503.94;;;16.24;76.67
12594;BME280;6362;50.208;9.182;2023-08-31T08:46:04;99500.25;;;16.52;75.40
12594;BME280;6362;50.208;9.182;2023-08-31T08:48:31;99506.53;;;16.48;75.59
12594;BME280;6362;50.208;9.182;2023-08-31T08:50:58;99514.88;;;16.35;73.94
12594;BME280;6362;50.208;9.182;2023-08-31T08:53:23;99517.81;;;16.28;74.47
12594;BME280;6362;50.208;9.182;2023-08-31T08:55:49;99510.88;;;16.02;75.28
12594;BME280;6362;50.208;9.182;2023-08-31T08:58:14;99515.72;;;15.89;77.26
12594;BME280;6362;50.208;9.182;2023-08-31T09:00:40;99524.31;;;15.93;76.06
12594;BME280;6362;50.208;9.182;2023-08-31T09:03:07;99516.53;;;15.91;77.07
12594;BME280;6362;50.208;9.182;2023-08-31T09:05:32;99521.84;;;15.90;78.87
12594;BME280;6362;50.208;9.182;2023-08-31T09:08:06;99518.47;;;16.09;76.93
12594;BME280;6362;50.208;9.182;2023-08-31T09:10:40;99525.84;;;16.23;74.96
12594;BME280;6362;50.208;9.182;2023-08-31T09:13:13;99524.47;;;16.36;75.02
12594;BME280;6362;50.208;9.182;2023-08-31T09:15:40;99525.97;;;16.44;72.65
12594;BME280;6362;50.208;9.182;2023-08-31T09:18:07;99525.22;;;16.40;74.11
12594;BME280;6362;50.208;9.182;2023-08-31T09:20:42;99523.34;;;16.44;73.14
12594;BME280;6362;50.208;9.182;2023-08-31T09:23:09;99528.91;;;16.34;72.79
12594;BME280;6362;50.208;9.182;2023-08-31T09:25:41;99526.69;;;16.24;73.22
12594;BME280;6362;50.208;9.182;2023-08-31T09:28:07;99524.31;;;16.18;72.91
12594;BME280;6362;50.208;9.182;2023-08-31T09:30:37;99531.19;;;16.20;72.84
12594;BME280;6362;50.208;9.182;2023-08-31T09:33:04;99532.28;;;16.15;72.86
12594;BME280;6362;50.208;9.182;2023-08-31T09:35:30;99523.78;;;16.08;73.68
12594;BME280;6362;50.208;9.182;2023-08-31T09:37:56;99522.69;;;16.14;75.97
12594;BME280;6362;50.208;9.182;2023-08-31T09:40:23;99525.72;;;16.26;72.37
12594;BME280;6362;50.208;9.182;2023-08-31T09:42:51;99524.63;;;16.32;71.10
12594;BME280;6362;50.208;9.182;2023-08-31T09:45:18;99521.31;;;16.74;69.80
12594;BME280;6362;50.208;9.182;2023-08-31T09:47:44;99519.75;;;16.68;68.14
12594;BME280;6362;50.208;9.182;2023-08-31T09:50:10;99523.38;;;16.87;68.05
12594;BME280;6362;50.208;9.182;2023-08-31T09:52:37;99517.28;;;16.87;66.98
12594;BME280;6362;50.208;9.182;2023-08-31T09:55:04;99517.44;;;17.04;67.26
12594;BME280;6362;50.208;9.182;2023-08-31T09:57:31;99513.75;;;17.30;67.49
12594;BME280;6362;50.208;9.182;2023-08-31T09:59:58;99520.53;;;17.36;65.31
12594;BME280;6362;50.208;9.182;2023-08-31T10:02:25;99525.41;;;17.45;66.78
12594;BME280;6362;50.208;9.182;2023-08-31T10:04:51;99518.44;;;17.64;64.50
12594;BME280;6362;50.208;9.182;2023-08-31T10:07:18;99509.56;;;17.67;63.58
12594;BME280;6362;50.208;9.182;2023-08-31T10:09:45;99517.66;;;17.62;63.50
12594;BME280;6362;50.208;9.182;2023-08-31T10:12:10;99511.03;;;17.74;63.14
12594;BME280;6362;50.208;9.182;2023-08-31T10:14:36;99526.06;;;17.71;62.34
12594;BME280;6362;50.208;9.182;2023-08-31T10:17:02;99526.88;;;17.93;62.85
12594;BME280;6362;50.208;9.182;2023-08-31T10:19:29;99525.63;;;18.20;61.82
12594;BME280;6362;50.208;9.182;2023-08-31T10:21:54;99522.41;;;18.72;60.70
12594;BME280;6362;50.208;9.182;2023-08-31T10:25:00;99515.31;;;19.28;59.07
12594;BME280;6362;50.208;9.182;2023-08-31T10:27:27;99522.44;;;19.43;59.76
12594;BME280;6362;50.208;9.182;2023-08-31T10:29:52;99518.56;;;19.50;59.65
12594;BME280;6362;50.208;9.182;2023-08-31T10:32:18;99514.72;;;19.04;59.07
12594;BME280;6362;50.208;9.182;2023-08-31T10:35:03;99523.50;;;18.47;60.75
12594;BME280;6362;50.208;9.182;2023-08-31T10:37:29;99531.06;;;18.17;61.74
12594;BME280;6362;50.208;9.182;2023-08-31T10:40:09;99527.88;;;17.90;62.47
12594;BME280;6362;50.208;9.182;2023-08-31T10:42:46;99535.44;;;17.78;63.79
12594;BME280;6362;50.208;9.182;2023-08-31T10:45:13;99533.81;;;17.53;64.17
12594;BME280;6362;50.208;9.182;2023-08-31T10:47:42;99531.38;;;17.49;65.25
12594;BME280;6362;50.208;9.182;2023-08-31T10:50:21;99539.53;;;17.42;64.40
12594;BME280;6362;50.208;9.182;2023-08-31T10:52:47;99543.06;;;17.41;63.96
12594;BME280;6362;50.208;9.182;2023-08-31T10:55:13;99540.19;;;17.27;64.51
12594;BME280;6362;50.208;9.182;2023-08-31T10:57:40;99535.91;;;17.25;64.80
12594;BME280;6362;50.208;9.182;2023-08-31T11:00:07;99527.53;;;17.15;65.69
12594;BME280;6362;50.208;9.182;2023-08-31T11:05:14;99526.81;;;17.11;66.56
12594;BME280;6362;50.208;9.182;2023-08-31T11:07:42;99538.59;;;17.23;66.28
12594;BME280;6362;50.208;9.182;2023-08-31T11:10:14;99531.16;;;17.55;64.28
12594;BME280;6362;50.208;9.182;2023-08-31T11:12:41;99530.88;;;17.81;62.90
12594;BME280;6362;50.208;9.182;2023-08-31T11:15:07;99529.50;;;17.93;63.21
12594;BME280;6362;50.208;9.182;2023-08-31T11:17:33;99524.47;;;18.07;61.50
12594;BME280;6362;50.208;9.182;2023-08-31T11:19:59;99522.97;;;18.02;62.55
12594;BME280;6362;50.208;9.182;2023-08-31T11:22:25;99520.09;;;17.87;62.51
12594;BME280;6362;50.208;9.182;2023-08-31T11:24:51;99516.84;;;17.82;63.10
12594;BME280;6362;50.208;9.182;2023-08-31T11:27:20;99525.59;;;17.83;62.79
12594;BME280;6362;50.208;9.182;2023-08-31T11:29:46;99520.72;;;17.74;64.40
12594;BME280;6362;50.208;9.182;2023-08-31T11:32:12;99519.03;;;17.91;64.01
12594;BME280;6362;50.208;9.182;2023-08-31T11:34:42;99511.13;;;18.31;62.68
12594;BME280;6362;50.208;9.182;2023-08-31T11:37:14;99506.91;;;18.64;59.48
12594;BME280;6362;50.208;9.182;2023-08-31T11:39:51;99508.22;;;18.93;59.80
12594;BME280;6362;50.208;9.182;2023-08-31T11:42:19;99509.81;;;19.49;60.60
12594;BME280;6362;50.208;9.182;2023-08-31T11:44:49;99505.84;;;19.75;55.39
12594;BME280;6362;50.208;9.182;2023-08-31T11:47:15;99500.94;;;20.67;53.76
12594;BME280;6362;50.208;9.182;2023-08-31T11:49:45;99508.00;;;20.51;51.30
12594;BME280;6362;50.208;9.182;2023-08-31T11:52:12;99496.88;;;20.92;52.78
12594;BME280;6362;50.208;9.182;2023-08-31T11:54:38;99496.84;;;20.77;50.06
12594;BME280;6362;50.208;9.182;2023-08-31T11:57:08;99502.81;;;20.32;51.84
12594;BME280;6362;50.208;9.182;2023-08-31T11:59:35;99504.19;;;19.90;52.13
12594;BME280;6362;50.208;9.182;2023-08-31T12:02:01;99504.63;;;19.83;52.72
12594;BME280;6362;50.208;9.182;2023-08-31T12:04:27;99503.38;;;19.55;53.69
12594;BME280;6362;50.208;9.182;2023-08-31T12:06:53;99504.28;;;20.22;52.01
12594;BME280;6362;50.208;9.182;2023-08-31T12:09:27;99501.03;;;20.66;50.70
12594;BME280;6362;50.208;9.182;2023-08-31T12:11:53;99494.66;;;21.00;48.65
12594;BME280;6362;50.208;9.182;2023-08-31T12:14:20;99495.84;;;21.84;47.19
12594;BME280;6362;50.208;9.182;2023-08-31T12:16:46;99494.28;;;22.25;46.10
12594;BME280;6362;50.208;9.182;2023-08-31T12:19:12;99487.69;;;22.59;44.64
12594;BME280;6362;50.208;9.182;2023-08-31T12:21:37;99494.03;;;21.71;46.07
12594;BME280;6362;50.208;9.182;2023-08-31T12:24:05;99484.03;;;21.31;47.58
12594;BME280;6362;50.208;9.182;2023-08-31T12:26:31;99492.63;;;21.79;47.51
12594;BME280;6362;50.208;9.182;2023-08-31T12:28:57;99487.00;;;22.14;46.66
12594;BME280;6362;50.208;9.182;2023-08-31T12:31:23;99486.72;;;22.19;46.08
12594;BME280;6362;50.208;9.182;2023-08-31T12:33:48;99472.50;;;22.34;45.51
12594;BME280;6362;50.208;9.182;2023-08-31T12:36:14;99479.78;;;22.30;46.87
12594;BME280;6362;50.208;9.182;2023-08-31T12:38:40;99484.72;;;21.94;46.70
12594;BME280;6362;50.208;9.182;2023-08-31T12:41:05;99482.06;;;21.94;46.26
12594;BME280;6362;50.208;9.182;2023-08-31T12:43:31;99485.25;;;22.42;45.84
12594;BME280;6362;50.208;9.182;2023-08-31T12:45:57;99492.53;;;22.52;45.45
12594;BME280;6362;50.208;9.182;2023-08-31T12:48:22;99488.00;;;22.26;44.65
12594;BME280;6362;50.208;9.182;2023-08-31T12:50:48;99479.88;;;22.29;45.53
12594;BME280;6362;50.208;9.182;2023-08-31T12:53:14;99479.88;;;23.11;48.02
12594;BME280;6362;50.208;9.182;2023-08-31T12:55:39;99487.84;;;23.24;42.15
12594;BME280;6362;50.208;9.182;2023-08-31T12:58:05;99479.47;;;22.90;43.54
12594;BME280;6362;50.208;9.182;2023-08-31T13:00:31;99475.69;;;23.47;43.35
12594;BME280;6362;50.208;9.182;2023-08-31T13:02:56;99484.06;;;23.54;41.29
12594;BME280;6362;50.208;9.182;2023-08-31T13:05:21;99493.03;;;23.13;42.65
12594;BME280;6362;50.208;9.182;2023-08-31T13:07:47;99486.19;;;22.55;42.85